広島空港の過去48時間の天気

広島空港 (New hiroshima)

現在時刻: 1/21 13:12 JST (1/21 04:12 UTC) 以下の時間は現地時間です。

過去48時間のMETAR気象情報
時間 風向 風速(m/s) 視程 気温(℃) 湿度(%) 気圧(hPa) 天気現象
21 13:00 3 10km以上 10 54 1024
21 12:00 南東 2 10km以上 9 57 1025
21 11:00 2 10km以上 7 66 1026
21 10:00 南東 2 10km以上 6 70 1027
21 09:00 東南東 2 10km以上 4 75 1027
21 08:00 東北東 3 10km以上 2 87 1027
21 07:00 東北東 2 10km以上 1 86 1027
RJOA 210400Z 10005KT 070V160 9999 FEW030 10/01 Q1024
RJOA 210300Z 13004KT 090V220 9999 FEW030 09/01 Q1025
RJOA 210200Z 10003KT 040V130 9999 FEW030 07/01 Q1026
RJOA 210100Z 13004KT 090V160 9999 FEW030 06/01 Q1027
RJOA 210000Z 11004KT 9999 FEW030 04/00 Q1027
RJOA 202300Z 07005KT 9999 FEW020 SCT030 02/M00 Q1027
RJOA 202200Z 07004KT 9999 FEW020 BKN030 01/M01 Q1027